createdAt,value
2019-05-16T00:00:31.189Z,970.50
2019-05-16T00:01:31.230Z,970.50
2019-05-16T00:02:31.300Z,970.52
2019-05-16T00:03:31.323Z,970.48
2019-05-16T00:04:31.375Z,970.46
2019-05-16T00:05:31.406Z,970.47
2019-05-16T00:06:31.458Z,970.45
2019-05-16T00:07:31.518Z,970.47
2019-05-16T00:08:31.566Z,970.42
2019-05-16T00:09:31.591Z,970.42
2019-05-16T00:10:31.631Z,970.36
2019-05-16T00:11:31.673Z,970.38
2019-05-16T00:12:31.742Z,970.34
2019-05-16T00:13:31.768Z,970.30
2019-05-16T00:14:31.820Z,970.29
2019-05-16T00:15:31.854Z,970.29
2019-05-16T00:16:31.894Z,970.27
2019-05-16T00:17:31.957Z,970.29
2019-05-16T00:18:32.003Z,970.27
2019-05-16T00:19:32.028Z,970.23
2019-05-16T00:20:32.694Z,970.23
2019-05-16T00:21:32.115Z,970.25
2019-05-16T00:22:32.172Z,970.24
2019-05-16T00:23:32.239Z,970.24
2019-05-16T00:24:32.251Z,970.21
2019-05-16T00:25:32.298Z,970.17
2019-05-16T00:26:32.342Z,970.17
2019-05-16T00:27:32.453Z,970.14
2019-05-16T00:28:32.460Z,970.14
2019-05-16T00:29:32.475Z,970.09
2019-05-16T00:30:32.518Z,970.09
2019-05-16T00:31:32.557Z,970.11
2019-05-16T00:32:32.605Z,970.10
2019-05-16T00:33:32.676Z,970.08
2019-05-16T00:34:32.762Z,970.10
2019-05-16T00:35:32.736Z,970.07
2019-05-16T00:36:32.786Z,970.03
2019-05-16T00:37:32.822Z,970.05
2019-05-16T00:38:32.884Z,970.03
2019-05-16T00:39:32.917Z,970.02
2019-05-16T00:40:32.957Z,969.99
2019-05-16T00:41:33.003Z,970.02
2019-05-16T00:42:33.046Z,969.97
2019-05-16T00:43:33.115Z,969.94
2019-05-16T00:44:33.136Z,969.94
2019-05-16T00:45:33.174Z,969.92
2019-05-16T00:46:33.218Z,969.90
2019-05-16T00:47:33.263Z,969.90
2019-05-16T00:48:33.386Z,969.88
2019-05-16T00:49:33.349Z,969.80
2019-05-16T00:50:33.397Z,969.83
2019-05-16T00:51:33.447Z,969.79
2019-05-16T00:52:33.536Z,969.80
2019-05-16T00:53:33.555Z,969.79
2019-05-16T00:54:33.585Z,969.81
2019-05-16T00:55:33.617Z,969.77
2019-05-16T00:56:33.672Z,969.74
2019-05-16T00:57:33.709Z,969.77
2019-05-16T00:58:33.743Z,969.72
2019-05-16T00:59:33.807Z,969.71
2019-05-16T01:00:33.826Z,969.72
2019-05-16T01:01:33.874Z,969.70
2019-05-16T01:02:33.925Z,969.72
2019-05-16T01:03:33.962Z,969.70
2019-05-16T01:04:34.033Z,969.66
2019-05-16T01:05:34.056Z,969.66
2019-05-16T01:06:34.098Z,969.65
2019-05-16T01:07:34.136Z,969.63
2019-05-16T01:08:34.178Z,969.61
2019-05-16T01:09:34.246Z,969.57
2019-05-16T01:10:34.272Z,969.60
2019-05-16T01:11:34.310Z,969.62
2019-05-16T01:12:34.353Z,969.62
2019-05-16T01:13:34.396Z,969.58
2019-05-16T01:14:34.473Z,969.59
2019-05-16T01:15:34.490Z,969.58
2019-05-16T01:16:34.528Z,969.56
2019-05-16T01:17:34.679Z,969.54
2019-05-16T01:18:34.614Z,969.56
2019-05-16T01:19:34.678Z,969.54
2019-05-16T01:20:34.700Z,969.55
2019-05-16T01:21:34.745Z,969.47
2019-05-16T01:22:34.795Z,969.46
2019-05-16T01:23:34.835Z,969.45
2019-05-16T01:24:34.989Z,969.39
2019-05-16T01:25:34.919Z,969.40
2019-05-16T01:26:34.968Z,969.37
2019-05-16T01:27:35.004Z,969.35
2019-05-16T01:28:35.063Z,969.37
2019-05-16T01:29:35.113Z,969.35
2019-05-16T01:30:35.140Z,969.31
2019-05-16T01:31:35.180Z,969.30
2019-05-16T01:32:35.236Z,969.28
2019-05-16T01:33:35.267Z,969.27
2019-05-16T01:34:37.667Z,969.28
2019-05-16T01:35:35.355Z,969.27
2019-05-16T01:36:37.984Z,969.26
2019-05-16T01:37:35.443Z,969.28
2019-05-16T01:38:35.488Z,969.22
2019-05-16T01:39:35.551Z,969.19
2019-05-16T01:40:35.570Z,969.16
2019-05-16T01:41:38.047Z,969.16
2019-05-16T01:42:35.667Z,969.16
2019-05-16T01:43:37.613Z,969.12
2019-05-16T01:44:38.035Z,969.14
2019-05-16T01:45:35.788Z,969.14
2019-05-16T01:46:35.829Z,969.12
2019-05-16T01:47:35.877Z,969.11
2019-05-16T01:48:37.965Z,969.08
2019-05-16T01:49:37.988Z,969.07
2019-05-16T01:50:36.033Z,969.08
2019-05-16T01:51:37.912Z,969.05
2019-05-16T01:52:38.059Z,969.04
2019-05-16T01:53:36.195Z,969.04
2019-05-16T01:54:36.179Z,969.04
2019-05-16T01:55:37.952Z,969.04
2019-05-16T01:56:38.545Z,969.00
2019-05-16T01:57:36.312Z,969.04
2019-05-16T01:58:38.269Z,969.00
2019-05-16T01:59:38.034Z,968.99
2019-05-16T02:00:48.052Z,968.96
2019-05-16T02:01:37.786Z,969.01
2019-05-16T02:02:38.601Z,969.00
2019-05-16T02:03:38.615Z,969.01
2019-05-16T02:04:37.985Z,969.00
2019-05-16T02:05:38.545Z,968.96
2019-05-16T02:06:48.333Z,968.98
2019-05-16T02:07:38.650Z,968.91
2019-05-16T02:08:37.998Z,968.93
2019-05-16T02:09:38.408Z,968.92
2019-05-16T02:10:37.875Z,968.93
2019-05-16T02:11:38.805Z,968.93
2019-05-16T02:12:38.544Z,968.86
2019-05-16T02:13:39.083Z,968.91
2019-05-16T02:14:38.776Z,968.92
2019-05-16T02:15:38.274Z,968.92
2019-05-16T02:16:38.461Z,968.93
2019-05-16T02:17:38.372Z,968.91
2019-05-16T02:18:38.224Z,968.91
2019-05-16T02:19:38.479Z,968.88
2019-05-16T02:20:39.263Z,968.88
2019-05-16T02:21:38.847Z,968.91
2019-05-16T02:22:38.965Z,968.88
2019-05-16T02:23:38.154Z,968.82
2019-05-16T02:24:38.833Z,968.86
2019-05-16T02:25:38.154Z,968.85
2019-05-16T02:26:38.635Z,968.79
2019-05-16T02:27:38.180Z,968.79
2019-05-16T02:28:40.794Z,968.79
2019-05-16T02:29:39.962Z,968.81
2019-05-16T02:30:37.755Z,968.84
2019-05-16T02:31:37.813Z,968.80
2019-05-16T02:32:41.289Z,968.77
2019-05-16T02:33:40.342Z,968.79
2019-05-16T02:34:41.367Z,968.78
2019-05-16T02:35:40.582Z,968.79
2019-05-16T02:36:40.463Z,968.78
2019-05-16T02:37:41.756Z,968.77
2019-05-16T02:38:38.081Z,968.77
2019-05-16T02:39:40.743Z,968.75
2019-05-16T02:40:38.211Z,968.70
2019-05-16T02:41:38.358Z,968.69
2019-05-16T02:42:41.531Z,968.62
2019-05-16T02:43:41.700Z,968.62
2019-05-16T02:44:40.877Z,968.62
2019-05-16T02:45:41.367Z,968.61
2019-05-16T02:46:41.629Z,968.57
2019-05-16T02:47:41.980Z,968.59
2019-05-16T02:48:40.839Z,968.62
2019-05-16T02:49:41.196Z,968.61
2019-05-16T02:50:41.252Z,968.61
2019-05-16T02:51:40.572Z,968.64
2019-05-16T02:52:41.374Z,968.68
2019-05-16T02:53:41.302Z,968.64
2019-05-16T02:54:41.298Z,968.66
2019-05-16T02:55:41.095Z,968.64
2019-05-16T02:56:41.445Z,968.64
2019-05-16T02:57:41.447Z,968.59
2019-05-16T02:58:44.281Z,968.60
2019-05-16T02:59:41.609Z,968.60
2019-05-16T03:00:42.696Z,968.57
2019-05-16T03:01:40.895Z,968.61
2019-05-16T03:02:41.999Z,968.55
2019-05-16T03:03:40.239Z,968.58
2019-05-16T03:04:40.981Z,968.55
2019-05-16T03:05:41.815Z,968.55
2019-05-16T03:06:41.047Z,968.53
2019-05-16T03:07:45.838Z,968.49
2019-05-16T03:08:41.234Z,968.51
2019-05-16T03:09:41.024Z,968.48
2019-05-16T03:10:41.302Z,968.47
2019-05-16T03:11:41.918Z,968.43
2019-05-16T03:12:41.151Z,968.44
2019-05-16T03:13:42.134Z,968.41
2019-05-16T03:14:41.891Z,968.38
2019-05-16T03:15:40.671Z,968.38
2019-05-16T03:16:41.787Z,968.43
2019-05-16T03:17:40.334Z,968.42
2019-05-16T03:18:41.326Z,968.42
2019-05-16T03:19:41.815Z,968.45
2019-05-16T03:20:40.776Z,968.46
2019-05-16T03:21:41.272Z,968.50
2019-05-16T03:22:40.892Z,968.49
2019-05-16T03:23:42.077Z,968.50
2019-05-16T03:24:42.095Z,968.52
2019-05-16T03:25:41.750Z,968.51
2019-05-16T03:26:40.826Z,968.50
2019-05-16T03:27:41.321Z,968.48
2019-05-16T03:28:41.320Z,968.47
2019-05-16T03:29:41.827Z,968.52
2019-05-16T03:30:44.504Z,968.50
2019-05-16T03:31:44.685Z,968.47
2019-05-16T03:32:44.633Z,968.48
2019-05-16T03:33:49.021Z,968.51
2019-05-16T03:34:43.899Z,968.50
2019-05-16T03:35:44.547Z,968.47
2019-05-16T03:36:43.815Z,968.51
2019-05-16T03:37:54.392Z,968.47
2019-05-16T03:38:41.365Z,968.47
2019-05-16T03:39:40.804Z,968.50
2019-05-16T03:40:41.373Z,968.50
2019-05-16T03:41:41.500Z,968.48
2019-05-16T03:42:41.568Z,968.52
2019-05-16T03:43:41.373Z,968.49
2019-05-16T03:44:41.193Z,968.49
2019-05-16T03:45:41.711Z,968.47
2019-05-16T03:46:41.456Z,968.48
2019-05-16T03:47:42.785Z,968.48
2019-05-16T03:48:41.154Z,968.44
2019-05-16T03:49:42.198Z,968.50
2019-05-16T03:50:41.374Z,968.49
2019-05-16T03:51:41.625Z,968.46
2019-05-16T03:52:43.717Z,968.47
2019-05-16T03:53:41.322Z,968.48
2019-05-16T03:54:41.973Z,968.47
2019-05-16T03:55:41.394Z,968.52
2019-05-16T03:56:41.432Z,968.47
2019-05-16T03:57:41.989Z,968.50
2019-05-16T03:58:41.901Z,968.47
2019-05-16T03:59:41.567Z,968.46
2019-05-16T04:00:45.295Z,968.48
2019-05-16T04:01:41.641Z,968.48
2019-05-16T04:02:45.441Z,968.46
2019-05-16T04:03:41.762Z,968.47
2019-05-16T04:04:41.921Z,968.47
2019-05-16T04:05:41.811Z,968.50
2019-05-16T04:06:41.944Z,968.44
2019-05-16T04:07:42.022Z,968.46
2019-05-16T04:08:41.975Z,968.44
2019-05-16T04:09:41.981Z,968.43
2019-05-16T04:10:42.032Z,968.40
2019-05-16T04:11:42.808Z,968.41
2019-05-16T04:12:42.329Z,968.43
2019-05-16T04:13:42.177Z,968.42
2019-05-16T04:14:42.215Z,968.41
2019-05-16T04:15:42.241Z,968.40
2019-05-16T04:16:42.282Z,968.43
2019-05-16T04:17:42.333Z,968.42
2019-05-16T04:18:42.394Z,968.42
2019-05-16T04:19:42.409Z,968.42
2019-05-16T04:20:42.453Z,968.41
2019-05-16T04:21:42.664Z,968.40
2019-05-16T04:22:42.611Z,968.45
2019-05-16T04:23:42.604Z,968.44
2019-05-16T04:24:42.653Z,968.42
2019-05-16T04:25:42.673Z,968.43
2019-05-16T04:26:42.719Z,968.48
2019-05-16T04:27:42.773Z,968.44
2019-05-16T04:28:42.812Z,968.46
2019-05-16T04:29:42.863Z,968.45
2019-05-16T04:30:42.883Z,968.47
2019-05-16T04:31:42.932Z,968.45
2019-05-16T04:32:42.962Z,968.49
2019-05-16T04:33:43.026Z,968.48
2019-05-16T04:34:43.077Z,968.44
2019-05-16T04:35:43.104Z,968.49
2019-05-16T04:36:43.144Z,968.45
2019-05-16T04:37:43.186Z,968.46
2019-05-16T04:38:46.830Z,968.48
2019-05-16T04:39:43.284Z,968.47
2019-05-16T04:40:43.322Z,968.50
2019-05-16T04:41:43.362Z,968.49
2019-05-16T04:42:43.393Z,968.49
2019-05-16T04:43:43.450Z,968.50
2019-05-16T04:44:43.502Z,968.49
2019-05-16T04:45:43.518Z,968.52
2019-05-16T04:46:43.560Z,968.50
2019-05-16T04:47:43.609Z,968.50
2019-05-16T04:48:43.652Z,968.55
2019-05-16T04:49:43.720Z,968.59
2019-05-16T04:50:43.735Z,968.57
2019-05-16T04:51:43.779Z,968.59
2019-05-16T04:52:43.826Z,968.62
2019-05-16T04:53:43.860Z,968.61
2019-05-16T04:54:43.924Z,968.59
2019-05-16T04:55:43.956Z,968.60
2019-05-16T04:56:43.990Z,968.58
2019-05-16T04:57:44.033Z,968.60
2019-05-16T04:58:44.101Z,968.56
2019-05-16T04:59:44.147Z,968.62
2019-05-16T05:00:44.164Z,968.57
2019-05-16T05:01:44.241Z,968.53
2019-05-16T05:02:44.251Z,968.55
2019-05-16T05:04:00.597Z,968.55
2019-05-16T05:04:44.356Z,968.53
2019-05-16T05:05:44.398Z,968.58
2019-05-16T05:06:44.428Z,968.62
2019-05-16T05:07:44.471Z,968.60
2019-05-16T05:08:54.483Z,968.65
2019-05-16T05:09:44.589Z,968.62
2019-05-16T05:10:44.609Z,968.62
2019-05-16T05:11:44.643Z,968.65
2019-05-16T05:12:44.694Z,968.62
2019-05-16T05:13:44.722Z,968.65
2019-05-16T05:14:44.773Z,968.60
2019-05-16T05:15:44.829Z,968.61
2019-05-16T05:16:44.852Z,968.60
2019-05-16T05:17:44.895Z,968.61
2019-05-16T05:18:44.936Z,968.64
2019-05-16T05:19:44.977Z,968.61
2019-05-16T05:20:45.055Z,968.66
2019-05-16T05:21:45.072Z,968.69
2019-05-16T05:22:45.107Z,968.71
2019-05-16T05:23:45.166Z,968.67
2019-05-16T05:24:45.213Z,968.70
2019-05-16T05:25:45.266Z,968.68
2019-05-16T05:26:45.364Z,968.71
2019-05-16T05:27:45.357Z,968.74
2019-05-16T05:28:45.376Z,968.71
2019-05-16T05:29:45.412Z,968.70
2019-05-16T05:30:45.757Z,968.70
2019-05-16T05:31:45.749Z,968.72
2019-05-16T05:32:45.570Z,968.70
2019-05-16T05:33:45.598Z,968.72
2019-05-16T05:34:45.629Z,968.72
2019-05-16T05:35:45.703Z,968.72
2019-05-16T05:36:45.715Z,968.71
2019-05-16T05:37:45.757Z,968.68
2019-05-16T05:38:48.326Z,968.71
2019-05-16T05:39:45.888Z,968.67
2019-05-16T05:40:45.922Z,968.70
2019-05-16T05:41:45.942Z,968.68
2019-05-16T05:42:45.980Z,968.70
2019-05-16T05:43:46.017Z,968.69
2019-05-16T05:44:46.067Z,968.70
2019-05-16T05:45:46.142Z,968.70
2019-05-16T05:46:46.209Z,968.70
2019-05-16T05:47:46.202Z,968.69
2019-05-16T05:48:46.264Z,968.65
2019-05-16T05:49:46.291Z,968.72
2019-05-16T05:50:46.351Z,968.71
2019-05-16T05:51:46.368Z,968.71
2019-05-16T05:52:46.419Z,968.70
2019-05-16T05:53:46.463Z,968.68
2019-05-16T05:54:46.507Z,968.71
2019-05-16T05:55:46.563Z,968.72
2019-05-16T05:56:46.605Z,968.76
2019-05-16T05:57:46.638Z,968.74
2019-05-16T05:58:46.689Z,968.78
2019-05-16T05:59:46.719Z,968.82
2019-05-16T06:00:46.784Z,968.81
2019-05-16T06:01:46.807Z,968.79
2019-05-16T06:02:46.849Z,968.78
2019-05-16T06:03:46.905Z,968.78
2019-05-16T06:04:46.938Z,968.75
2019-05-16T06:05:47.009Z,968.73
2019-05-16T06:06:47.051Z,968.70
2019-05-16T06:07:47.077Z,968.67
2019-05-16T06:08:47.145Z,968.69
2019-05-16T06:09:53.429Z,968.67
2019-05-16T06:10:47.204Z,968.70
2019-05-16T06:11:47.274Z,968.65
2019-05-16T06:12:49.855Z,968.66
2019-05-16T06:13:49.801Z,968.64
2019-05-16T06:14:47.383Z,968.65
2019-05-16T06:15:47.425Z,968.64
2019-05-16T06:16:47.487Z,968.63
2019-05-16T06:17:47.524Z,968.63
2019-05-16T06:18:47.575Z,968.61
2019-05-16T06:19:49.602Z,968.61
2019-05-16T06:20:47.645Z,968.62
2019-05-16T06:21:50.191Z,968.61
2019-05-16T06:22:47.739Z,968.64
2019-05-16T06:23:47.782Z,968.60
2019-05-16T06:24:50.269Z,968.68
2019-05-16T06:25:50.262Z,968.66
2019-05-16T06:26:50.287Z,968.64
2019-05-16T06:27:47.968Z,968.65
2019-05-16T06:28:50.248Z,968.66
2019-05-16T06:29:49.686Z,968.66
2019-05-16T06:30:51.029Z,968.68
2019-05-16T06:31:49.681Z,968.69
2019-05-16T06:32:50.027Z,968.66
2019-05-16T06:33:50.227Z,968.67
2019-05-16T06:34:50.563Z,968.68
2019-05-16T06:35:50.906Z,968.68
2019-05-16T06:36:50.692Z,968.67
2019-05-16T06:37:49.949Z,968.68
2019-05-16T06:38:49.811Z,968.69
2019-05-16T06:39:50.257Z,968.69
2019-05-16T06:40:49.999Z,968.71
2019-05-16T06:41:50.877Z,968.72
2019-05-16T06:42:50.786Z,968.74
2019-05-16T06:43:50.726Z,968.72
2019-05-16T06:44:50.350Z,968.70
2019-05-16T06:45:50.976Z,968.64
2019-05-16T06:46:59.827Z,968.66
2019-05-16T06:47:50.377Z,968.70
2019-05-16T06:48:50.599Z,968.71
2019-05-16T06:49:50.859Z,968.69
2019-05-16T06:50:51.466Z,968.73
2019-05-16T06:51:51.341Z,968.67
2019-05-16T06:52:50.221Z,968.64
2019-05-16T06:53:50.056Z,968.66
2019-05-16T06:54:50.391Z,968.60
2019-05-16T06:55:49.740Z,968.66
2019-05-16T06:56:51.022Z,968.64
2019-05-16T06:57:50.360Z,968.63
2019-05-16T06:58:51.749Z,968.61
2019-05-16T06:59:50.008Z,968.58
2019-05-16T07:00:52.423Z,968.57
2019-05-16T07:01:50.032Z,968.56
2019-05-16T07:02:50.152Z,968.60
2019-05-16T07:03:50.772Z,968.61
2019-05-16T07:04:50.619Z,968.58
2019-05-16T07:05:50.381Z,968.56
2019-05-16T07:06:58.689Z,968.59
2019-05-16T07:07:50.856Z,968.54
2019-05-16T07:08:50.715Z,968.58
2019-05-16T07:10:00.106Z,968.58
2019-05-16T07:10:50.759Z,968.55
2019-05-16T07:11:50.480Z,968.60
2019-05-16T07:12:50.490Z,968.54
2019-05-16T07:13:51.990Z,968.59
2019-05-16T07:14:50.496Z,968.56
2019-05-16T07:15:50.514Z,968.55
2019-05-16T07:16:50.250Z,968.55
2019-05-16T07:17:50.793Z,968.58
2019-05-16T07:18:50.755Z,968.58
2019-05-16T07:19:50.441Z,968.58
2019-05-16T07:20:51.108Z,968.53
2019-05-16T07:21:50.884Z,968.52
2019-05-16T07:22:50.579Z,968.50
2019-05-16T07:23:51.205Z,968.52
2019-05-16T07:24:50.659Z,968.51
2019-05-16T07:25:50.915Z,968.51
2019-05-16T07:26:50.733Z,968.48
2019-05-16T07:27:51.203Z,968.51
2019-05-16T07:28:51.754Z,968.49
2019-05-16T07:29:50.959Z,968.50
2019-05-16T07:30:50.910Z,968.44
2019-05-16T07:31:52.266Z,968.45
2019-05-16T07:32:51.013Z,968.48
2019-05-16T07:33:51.073Z,968.46
2019-05-16T07:34:51.097Z,968.53
2019-05-16T07:35:51.576Z,968.48
2019-05-16T07:36:51.199Z,968.45
2019-05-16T07:37:51.238Z,968.47
2019-05-16T07:38:51.301Z,968.49
2019-05-16T07:39:51.377Z,968.45
2019-05-16T07:40:51.583Z,968.46
2019-05-16T07:41:51.431Z,968.45
2019-05-16T07:42:51.484Z,968.40
2019-05-16T07:43:51.567Z,968.46
2019-05-16T07:44:51.565Z,968.40
2019-05-16T07:45:51.764Z,968.43
2019-05-16T07:46:51.803Z,968.44
2019-05-16T07:47:51.709Z,968.43
2019-05-16T07:48:52.196Z,968.44
2019-05-16T07:49:51.822Z,968.41
2019-05-16T07:50:51.848Z,968.43
2019-05-16T07:51:51.891Z,968.38
2019-05-16T07:52:51.939Z,968.38
2019-05-16T07:53:52.023Z,968.35
2019-05-16T07:54:52.030Z,968.35
2019-05-16T07:55:52.090Z,968.38
2019-05-16T07:56:59.535Z,968.36
2019-05-16T07:57:52.170Z,968.35
2019-05-16T07:58:52.242Z,968.39
2019-05-16T07:59:52.295Z,968.41
2019-05-16T08:01:02.462Z,968.38
2019-05-16T08:01:54.146Z,968.40
2019-05-16T08:02:52.413Z,968.40
2019-05-16T08:03:52.450Z,968.39
2019-05-16T08:04:52.637Z,968.36
2019-05-16T08:05:52.559Z,968.33
2019-05-16T08:06:52.588Z,968.34
2019-05-16T08:07:52.640Z,968.37
2019-05-16T08:08:52.712Z,968.33
2019-05-16T08:09:52.741Z,968.29
2019-05-16T08:10:52.779Z,968.25
2019-05-16T08:11:52.827Z,968.23
2019-05-16T08:12:52.876Z,968.23
2019-05-16T08:13:52.936Z,968.30
2019-05-16T08:14:52.984Z,968.19
2019-05-16T08:15:53.021Z,968.20
2019-05-16T08:16:53.794Z,968.19
2019-05-16T08:17:53.108Z,968.18
2019-05-16T08:18:53.154Z,968.21
2019-05-16T08:19:53.218Z,968.18
2019-05-16T08:20:53.248Z,968.24
2019-05-16T08:21:53.304Z,968.18
2019-05-16T08:22:53.440Z,968.24
2019-05-16T08:23:53.397Z,968.17
2019-05-16T08:24:53.465Z,968.19
2019-05-16T08:25:53.488Z,968.20
2019-05-16T08:26:53.561Z,968.14
2019-05-16T08:27:53.578Z,968.12
2019-05-16T08:28:53.627Z,968.16
2019-05-16T08:29:53.705Z,968.13
2019-05-16T08:30:53.727Z,968.14
2019-05-16T08:31:53.771Z,968.14
2019-05-16T08:32:53.819Z,968.08
2019-05-16T08:33:55.273Z,968.15
2019-05-16T08:34:53.930Z,968.12
2019-05-16T08:35:53.962Z,968.12
2019-05-16T08:36:54.006Z,968.10
2019-05-16T08:37:54.065Z,968.10
2019-05-16T08:38:54.114Z,968.09
2019-05-16T08:39:54.180Z,968.02
2019-05-16T08:41:11.692Z,968.02
2019-05-16T08:41:54.279Z,968.07
2019-05-16T08:42:54.296Z,968.06
2019-05-16T08:43:54.360Z,968.09
2019-05-16T08:44:54.454Z,968.09
2019-05-16T08:45:54.460Z,968.08
2019-05-16T08:46:57.988Z,967.99
2019-05-16T08:47:54.546Z,967.93
2019-05-16T08:48:54.597Z,967.99
2019-05-16T08:49:54.633Z,967.97
2019-05-16T08:50:55.132Z,967.96
2019-05-16T08:51:54.746Z,967.95
2019-05-16T08:52:54.786Z,967.94
2019-05-16T08:53:54.847Z,967.89
2019-05-16T08:54:54.881Z,967.86
2019-05-16T08:55:55.089Z,967.86
2019-05-16T08:56:54.978Z,967.84
2019-05-16T08:57:55.042Z,967.86
2019-05-16T08:58:55.093Z,967.87
2019-05-16T08:59:55.135Z,967.83
2019-05-16T09:00:55.731Z,967.80
2019-05-16T09:02:55.355Z,967.77
2019-05-16T09:03:55.372Z,967.76
2019-05-16T09:04:55.408Z,967.72
2019-05-16T09:05:55.426Z,967.72
2019-05-16T09:06:55.500Z,967.68
2019-05-16T09:08:00.691Z,967.70
2019-05-16T09:08:59.621Z,967.72
2019-05-16T09:09:59.856Z,967.73
2019-05-16T09:10:25.132Z,967.79
2019-05-16T09:11:01.787Z,967.73
2019-05-16T09:11:57.438Z,967.71
2019-05-16T09:12:57.237Z,967.71
2019-05-16T09:13:57.234Z,967.66
2019-05-16T09:14:59.401Z,967.69
2019-05-16T09:15:57.123Z,967.67
2019-05-16T09:16:58.036Z,967.67
2019-05-16T09:17:58.161Z,967.67
2019-05-16T09:18:57.524Z,967.69
2019-05-16T09:19:57.663Z,967.67
2019-05-16T09:20:57.834Z,967.68
2019-05-16T09:21:58.005Z,967.61
2019-05-16T09:22:57.949Z,967.53
2019-05-16T09:23:57.780Z,967.58
2019-05-16T09:24:57.719Z,967.58
2019-05-16T09:25:58.862Z,967.60
2019-05-16T09:26:57.867Z,967.60
2019-05-16T09:27:57.014Z,967.61
2019-05-16T09:28:57.181Z,967.62
2019-05-16T09:29:56.896Z,967.63
2019-05-16T09:30:57.746Z,967.63
2019-05-16T09:32:15.338Z,967.62
2019-05-16T09:32:58.799Z,967.61
2019-05-16T09:33:56.950Z,967.59
2019-05-16T09:34:57.520Z,967.57
2019-05-16T09:35:57.506Z,967.60
2019-05-16T09:37:00.589Z,967.62
2019-05-16T09:37:57.555Z,967.61
2019-05-16T09:38:57.948Z,967.60
2019-05-16T09:39:57.420Z,967.60
2019-05-16T09:40:57.313Z,967.62
2019-05-16T09:41:58.765Z,967.64
2019-05-16T09:42:57.259Z,967.60
2019-05-16T09:43:58.826Z,967.58
2019-05-16T09:44:57.844Z,967.53
2019-05-16T09:46:03.405Z,967.52
2019-05-16T09:46:57.488Z,967.51
2019-05-16T09:47:57.573Z,967.53
2019-05-16T09:49:15.813Z,967.51
2019-05-16T09:49:58.057Z,967.47
2019-05-16T09:50:57.907Z,967.52
2019-05-16T09:51:57.837Z,967.50
2019-05-16T09:52:57.778Z,967.55
2019-05-16T09:53:57.803Z,967.53
2019-05-16T09:54:57.941Z,967.54
2019-05-16T09:55:57.902Z,967.46
2019-05-16T09:56:57.952Z,967.45
2019-05-16T09:57:58.545Z,967.44
2019-05-16T09:58:58.055Z,967.41
2019-05-16T09:59:58.102Z,967.41
2019-05-16T10:00:58.154Z,967.40
2019-05-16T10:01:58.210Z,967.44
2019-05-16T10:02:58.771Z,967.43
2019-05-16T10:03:58.300Z,967.35
2019-05-16T10:04:58.379Z,967.36
2019-05-16T10:05:58.404Z,967.33
2019-05-16T10:06:58.456Z,967.35
2019-05-16T10:07:58.545Z,967.37
2019-05-16T10:08:58.555Z,967.43
2019-05-16T10:09:58.627Z,967.40
2019-05-16T10:10:58.648Z,967.37
2019-05-16T10:12:08.341Z,967.33
2019-05-16T10:12:58.769Z,967.34
2019-05-16T10:13:58.804Z,967.33
2019-05-16T10:14:59.764Z,967.33
2019-05-16T10:15:58.917Z,967.30
2019-05-16T10:16:58.963Z,967.39
2019-05-16T10:17:59.020Z,967.32
2019-05-16T10:18:59.080Z,967.31
2019-05-16T10:20:00.145Z,967.32
2019-05-16T10:20:59.416Z,967.36
2019-05-16T10:22:00.328Z,967.34
2019-05-16T10:22:59.295Z,967.33
2019-05-16T10:23:59.332Z,967.31
2019-05-16T10:24:59.361Z,967.29
2019-05-16T10:25:59.416Z,967.31
2019-05-16T10:26:59.470Z,967.31
2019-05-16T10:27:59.622Z,967.31
2019-05-16T10:28:59.584Z,967.28
2019-05-16T10:30:01.130Z,967.30
2019-05-16T10:30:59.684Z,967.27
2019-05-16T10:31:59.728Z,967.29
2019-05-16T10:33:00.969Z,967.30
2019-05-16T10:33:59.847Z,967.29
2019-05-16T10:34:59.930Z,967.27
2019-05-16T10:35:59.929Z,967.32
2019-05-16T10:36:59.980Z,967.33
2019-05-16T10:38:00.038Z,967.30
2019-05-16T10:39:00.100Z,967.32
2019-05-16T10:40:00.165Z,967.31
2019-05-16T10:41:00.195Z,967.36
2019-05-16T10:42:00.289Z,967.31
2019-05-16T10:43:00.298Z,967.31
2019-05-16T10:44:00.378Z,967.27
2019-05-16T10:45:00.444Z,967.27
2019-05-16T10:46:00.568Z,967.25
2019-05-16T10:47:00.494Z,967.31
2019-05-16T10:48:00.554Z,967.22
2019-05-16T10:49:00.639Z,967.25
2019-05-16T10:50:00.642Z,967.23
2019-05-16T10:51:00.695Z,967.25
2019-05-16T10:52:00.741Z,967.23
2019-05-16T10:53:22.484Z,967.22
2019-05-16T10:54:09.648Z,967.19
2019-05-16T10:55:02.580Z,967.19
2019-05-16T10:56:01.010Z,967.18
2019-05-16T10:57:01.038Z,967.17
2019-05-16T10:58:01.047Z,967.12
2019-05-16T10:59:37.906Z,967.15
2019-05-16T11:00:09.676Z,967.10
2019-05-16T11:01:22.486Z,967.16
2019-05-16T11:02:01.253Z,967.14
2019-05-16T11:03:01.320Z,967.10
2019-05-16T11:04:01.410Z,967.16
2019-05-16T11:05:20.544Z,967.15
2019-05-16T11:06:05.812Z,967.14
2019-05-16T11:07:01.517Z,967.15
2019-05-16T11:08:01.654Z,967.15
2019-05-16T11:09:01.604Z,967.13
2019-05-16T11:10:03.512Z,967.11
2019-05-16T11:11:01.707Z,967.10
2019-05-16T11:12:01.769Z,967.10
2019-05-16T11:13:01.812Z,967.09
2019-05-16T11:14:01.879Z,967.13
2019-05-16T11:15:01.946Z,967.07
2019-05-16T11:16:01.981Z,967.08
2019-05-16T11:17:02.016Z,967.10
2019-05-16T11:18:02.070Z,967.11
2019-05-16T11:19:14.150Z,967.10
2019-05-16T11:20:02.188Z,967.08
2019-05-16T11:21:02.207Z,967.08
2019-05-16T11:22:02.264Z,967.09
2019-05-16T11:23:02.335Z,967.09
2019-05-16T11:24:02.389Z,967.11
2019-05-16T11:25:02.433Z,967.06
2019-05-16T11:26:02.470Z,967.06
2019-05-16T11:27:02.558Z,967.08
2019-05-16T11:28:02.562Z,967.06
2019-05-16T11:29:02.624Z,967.07
2019-05-16T11:30:02.693Z,967.09
2019-05-16T11:31:03.980Z,967.06
2019-05-16T11:32:02.769Z,967.09
2019-05-16T11:33:02.823Z,967.08
2019-05-16T11:34:02.866Z,967.05
2019-05-16T11:35:02.929Z,967.05
2019-05-16T11:36:02.966Z,967.06
2019-05-16T11:37:03.022Z,967.06
2019-05-16T11:38:03.062Z,967.02
2019-05-16T11:39:03.178Z,966.98
2019-05-16T11:40:03.193Z,967.03
2019-05-16T11:41:03.237Z,967.03
2019-05-16T11:42:03.263Z,966.98
2019-05-16T11:43:10.658Z,966.98
2019-05-16T11:44:03.365Z,966.99
2019-05-16T11:45:03.424Z,967.02
2019-05-16T11:46:03.490Z,966.95
2019-05-16T11:47:03.521Z,967.00
2019-05-16T11:48:03.580Z,966.96
2019-05-16T11:49:03.624Z,966.94
2019-05-16T11:50:03.683Z,966.94
2019-05-16T11:51:03.752Z,966.93
2019-05-16T11:52:03.773Z,966.92
2019-05-16T11:53:03.842Z,966.93
2019-05-16T11:54:03.867Z,966.94
2019-05-16T11:55:07.177Z,966.92
2019-05-16T11:56:04.003Z,966.93
2019-05-16T11:57:06.641Z,966.96
2019-05-16T11:58:06.606Z,966.94
2019-05-16T11:59:04.773Z,966.94
2019-05-16T12:00:04.173Z,966.91
2019-05-16T12:01:07.283Z,966.90
2019-05-16T12:02:04.284Z,966.91
2019-05-16T12:03:04.330Z,966.91
2019-05-16T12:04:04.380Z,966.91
2019-05-16T12:05:04.440Z,966.93
2019-05-16T12:06:05.593Z,966.90
2019-05-16T12:07:04.533Z,966.87
2019-05-16T12:08:07.346Z,966.88
2019-05-16T12:09:06.645Z,966.87
2019-05-16T12:10:07.368Z,966.84
2019-05-16T12:11:06.753Z,966.87
2019-05-16T12:12:04.801Z,966.86
2019-05-16T12:13:07.370Z,966.83
2019-05-16T12:14:07.166Z,966.86
2019-05-16T12:15:07.634Z,966.87
2019-05-16T12:16:07.264Z,966.84
2019-05-16T12:17:07.259Z,966.85
2019-05-16T12:18:08.103Z,966.83
2019-05-16T12:19:06.892Z,966.83
2019-05-16T12:20:07.501Z,966.76
2019-05-16T12:21:07.320Z,966.76
2019-05-16T12:22:07.058Z,966.74
2019-05-16T12:23:07.981Z,966.77
2019-05-16T12:24:07.377Z,966.79
2019-05-16T12:25:08.168Z,966.78
2019-05-16T12:26:07.807Z,966.78
2019-05-16T12:27:07.993Z,966.77
2019-05-16T12:28:08.079Z,966.77
2019-05-16T12:29:07.022Z,966.78